createdAt,value
2018-08-25T00:00:35.856Z,15.00
2018-08-25T00:02:39.898Z,15.10
2018-08-25T00:04:44.926Z,15.00
2018-08-25T00:07:07.918Z,15.10
2018-08-25T00:09:28.775Z,15.10
2018-08-25T00:11:37.000Z,14.90
2018-08-25T00:13:40.957Z,14.50
2018-08-25T00:15:45.266Z,14.30
2018-08-25T00:17:50.685Z,14.20
2018-08-25T00:19:54.635Z,14.20
2018-08-25T00:21:58.564Z,14.10
2018-08-25T00:24:08.332Z,13.90
2018-08-25T00:26:12.591Z,14.00
2018-08-25T00:28:17.989Z,14.40
2018-08-25T00:30:27.566Z,14.40
2018-08-25T00:32:32.778Z,14.50
2018-08-25T00:34:37.092Z,14.60
2018-08-25T00:36:42.428Z,14.60
2018-08-25T00:38:47.101Z,14.60
2018-08-25T00:40:51.502Z,14.70
2018-08-25T00:43:06.935Z,14.70
2018-08-25T00:45:15.254Z,14.50
2018-08-25T00:47:20.074Z,14.50
2018-08-25T00:49:24.144Z,14.50
2018-08-25T00:51:29.222Z,14.50
2018-08-25T00:53:33.307Z,14.50
2018-08-25T00:55:37.496Z,14.40
2018-08-25T00:57:42.604Z,14.40
2018-08-25T00:59:47.013Z,14.50
2018-08-25T01:01:51.212Z,14.60
2018-08-25T01:03:55.306Z,14.70
2018-08-25T01:05:59.387Z,14.70
2018-08-25T01:08:08.695Z,14.70
2018-08-25T01:10:13.626Z,14.80
2018-08-25T01:12:21.750Z,14.60
2018-08-25T01:14:26.513Z,14.40
2018-08-25T01:16:30.570Z,14.20
2018-08-25T01:18:34.779Z,14.10
2018-08-25T01:20:38.896Z,14.20
2018-08-25T01:22:43.165Z,14.20
2018-08-25T01:24:47.999Z,14.30
2018-08-25T01:26:52.400Z,14.30
2018-08-25T01:28:56.388Z,14.20
2018-08-25T01:31:00.321Z,14.20
2018-08-25T01:33:04.915Z,13.90
2018-08-25T01:35:09.172Z,14.10
2018-08-25T01:37:15.811Z,14.00
2018-08-25T01:39:20.385Z,14.30
2018-08-25T01:41:24.907Z,14.10
2018-08-25T01:43:29.419Z,14.20
2018-08-25T01:45:33.483Z,14.20
2018-08-25T01:47:37.404Z,14.20
2018-08-25T01:49:42.597Z,14.20
2018-08-25T01:51:52.639Z,14.20
2018-08-25T01:53:56.967Z,13.90
2018-08-25T01:56:01.194Z,14.10
2018-08-25T01:58:05.879Z,14.10
2018-08-25T02:00:09.954Z,14.10
2018-08-25T02:02:17.940Z,14.20
2018-08-25T02:04:22.144Z,14.20
2018-08-25T02:06:26.575Z,14.10
2018-08-25T02:08:30.648Z,14.20
2018-08-25T02:10:34.488Z,14.10
2018-08-25T02:12:38.412Z,14.30
2018-08-25T02:14:42.559Z,14.40
2018-08-25T02:16:48.866Z,14.50
2018-08-25T02:18:53.403Z,14.50
2018-08-25T02:20:57.457Z,14.40
2018-08-25T02:23:01.484Z,14.30
2018-08-25T02:25:05.997Z,14.40
2018-08-25T02:27:10.043Z,14.40
2018-08-25T02:29:14.956Z,14.50
2018-08-25T02:31:19.504Z,13.90
2018-08-25T02:33:23.717Z,14.10
2018-08-25T02:35:27.708Z,14.20
2018-08-25T02:37:31.999Z,14.40
2018-08-25T02:39:35.994Z,13.90
2018-08-25T02:41:39.921Z,14.10
2018-08-25T02:43:45.027Z,14.10
2018-08-25T02:45:50.958Z,14.10
2018-08-25T02:47:55.628Z,14.00
2018-08-25T02:49:59.709Z,14.00
2018-08-25T02:52:03.844Z,14.00
2018-08-25T02:54:07.894Z,14.00
2018-08-25T02:56:12.471Z,13.80
2018-08-25T02:58:17.889Z,13.90
2018-08-25T03:00:22.192Z,14.00
2018-08-25T03:02:27.593Z,13.80
2018-08-25T03:04:31.768Z,13.90
2018-08-25T03:06:36.814Z,14.20
2018-08-25T03:08:41.830Z,14.30
2018-08-25T03:10:46.503Z,14.30
2018-08-25T03:12:53.375Z,14.30
2018-08-25T03:14:57.884Z,14.20
2018-08-25T03:17:02.147Z,14.20
2018-08-25T03:19:06.148Z,14.30
2018-08-25T03:21:10.156Z,14.20
2018-08-25T03:23:14.310Z,14.00
2018-08-25T03:25:18.360Z,13.90
2018-08-25T03:27:22.356Z,13.80
2018-08-25T03:29:26.243Z,13.70
2018-08-25T03:31:30.335Z,13.70
2018-08-25T03:33:34.395Z,13.80
2018-08-25T03:35:38.281Z,13.70
2018-08-25T03:37:44.840Z,13.80
2018-08-25T03:39:49.255Z,13.70
2018-08-25T03:41:53.945Z,13.70
2018-08-25T03:43:57.925Z,13.70
2018-08-25T03:46:02.019Z,13.60
2018-08-25T03:48:06.390Z,13.60
2018-08-25T03:50:10.381Z,13.80
2018-08-25T03:52:16.906Z,13.50
2018-08-25T03:54:21.296Z,13.60
2018-08-25T03:56:25.309Z,13.70
2018-08-25T03:58:29.699Z,13.70
2018-08-25T04:00:33.811Z,13.70
2018-08-25T04:02:37.758Z,13.80
2018-08-25T04:04:41.864Z,13.80
2018-08-25T04:06:47.023Z,13.70
2018-08-25T04:08:52.815Z,13.60
2018-08-25T04:10:57.284Z,13.80
2018-08-25T04:13:01.800Z,13.80
2018-08-25T04:15:07.046Z,13.90
2018-08-25T04:17:11.091Z,13.80
2018-08-25T04:19:18.434Z,13.80
2018-08-25T04:21:29.330Z,13.80
2018-08-25T04:23:36.041Z,13.90
2018-08-25T04:25:45.891Z,13.90
2018-08-25T04:28:02.947Z,14.00
2018-08-25T04:30:14.583Z,14.00
2018-08-25T04:32:23.728Z,13.90
2018-08-25T04:34:28.720Z,14.00
2018-08-25T04:36:32.820Z,13.80
2018-08-25T04:38:37.055Z,14.00
2018-08-25T04:40:42.746Z,13.90
2018-08-25T04:42:48.017Z,13.80
2018-08-25T04:44:52.437Z,13.80
2018-08-25T04:46:56.615Z,13.70
2018-08-25T04:49:01.132Z,13.70
2018-08-25T04:51:05.327Z,13.70
2018-08-25T04:53:09.445Z,13.70
2018-08-25T04:55:14.277Z,13.80
2018-08-25T04:57:21.999Z,13.80
2018-08-25T04:59:27.343Z,13.70
2018-08-25T05:01:31.386Z,13.60
2018-08-25T05:03:35.264Z,13.60
2018-08-25T05:05:39.315Z,13.80
2018-08-25T05:07:46.620Z,13.90
2018-08-25T05:09:50.894Z,14.00
2018-08-25T05:11:54.896Z,14.00
2018-08-25T05:13:59.363Z,13.90
2018-08-25T05:16:03.886Z,13.90
2018-08-25T05:18:08.073Z,13.70
2018-08-25T05:20:14.817Z,13.70
2018-08-25T05:22:20.930Z,13.70
2018-08-25T05:24:35.073Z,13.60
2018-08-25T05:26:39.121Z,13.30
2018-08-25T05:28:45.079Z,13.40
2018-08-25T05:30:49.919Z,13.40
2018-08-25T05:32:54.379Z,13.50
2018-08-25T05:34:58.405Z,13.30
2018-08-25T05:37:02.851Z,13.50
2018-08-25T05:39:09.982Z,13.50
2018-08-25T05:41:19.644Z,13.40
2018-08-25T05:45:51.033Z,13.70
2018-08-25T05:47:55.529Z,13.70
2018-08-25T05:49:59.540Z,13.60
2018-08-25T05:52:03.526Z,13.70
2018-08-25T05:54:08.485Z,13.80
2018-08-25T05:56:14.591Z,13.80
2018-08-25T05:58:19.012Z,13.70
2018-08-25T06:00:23.662Z,13.80
2018-08-25T06:02:27.585Z,13.50
2018-08-25T06:04:32.515Z,13.80
2018-08-25T06:06:36.592Z,14.00
2018-08-25T06:08:40.444Z,14.10
2018-08-25T06:13:15.148Z,14.40
2018-08-25T06:15:19.556Z,14.40
2018-08-25T06:17:24.053Z,14.20
2018-08-25T06:19:29.279Z,14.30
2018-08-25T06:21:33.450Z,14.30
2018-08-25T06:23:37.413Z,14.30
2018-08-25T06:25:44.242Z,14.20
2018-08-25T06:27:50.162Z,14.20
2018-08-25T06:29:54.400Z,14.20
2018-08-25T06:31:58.630Z,14.30
2018-08-25T06:34:07.286Z,14.20
2018-08-25T06:36:19.590Z,14.20
2018-08-25T06:38:28.193Z,14.10
2018-08-25T06:40:35.397Z,14.00
2018-08-25T06:42:39.676Z,14.20
2018-08-25T06:44:44.704Z,14.20
2018-08-25T06:46:51.155Z,14.10
2018-08-25T06:48:55.565Z,14.10
2018-08-25T06:51:00.151Z,14.00
2018-08-25T06:53:04.142Z,14.10
2018-08-25T06:55:08.308Z,14.20
2018-08-25T06:57:15.238Z,14.30
2018-08-25T06:59:19.451Z,14.30
2018-08-25T07:01:23.543Z,14.70
2018-08-25T07:03:27.583Z,15.00
2018-08-25T07:05:31.452Z,15.20
2018-08-25T07:07:36.006Z,15.30
2018-08-25T07:09:39.879Z,15.60
2018-08-25T07:11:45.140Z,15.80
2018-08-25T07:13:49.626Z,15.90
2018-08-25T07:15:54.122Z,16.10
2018-08-25T07:17:58.737Z,16.30
2018-08-25T07:20:02.588Z,16.30
2018-08-25T07:22:06.454Z,16.10
2018-08-25T07:24:10.349Z,16.20
2018-08-25T07:26:14.790Z,16.10
2018-08-25T07:28:19.115Z,16.10
2018-08-25T07:30:23.202Z,16.00
2018-08-25T07:32:27.066Z,16.00
2018-08-25T07:34:30.916Z,16.10
2018-08-25T07:36:34.814Z,16.40
2018-08-25T07:38:38.943Z,16.60
2018-08-25T07:40:43.994Z,16.70
2018-08-25T07:42:48.635Z,16.90
2018-08-25T07:44:53.024Z,16.70
2018-08-25T07:46:57.012Z,16.70
2018-08-25T07:49:01.299Z,16.90
2018-08-25T07:51:05.365Z,17.00
2018-08-25T07:53:09.520Z,17.10
2018-08-25T07:55:13.872Z,17.10
2018-08-25T07:57:19.407Z,16.90
2018-08-25T07:59:23.746Z,16.80
2018-08-25T08:01:27.937Z,16.70
2018-08-25T08:03:31.796Z,16.70
2018-08-25T08:05:36.084Z,16.80
2018-08-25T08:07:39.931Z,17.10
2018-08-25T08:09:44.435Z,17.50
2018-08-25T08:11:48.977Z,17.60
2018-08-25T08:13:52.976Z,17.40
2018-08-25T08:15:56.947Z,17.70
2018-08-25T08:18:00.937Z,17.80
2018-08-25T08:20:06.146Z,17.80
2018-08-25T08:22:10.016Z,17.90
2018-08-25T08:24:14.582Z,17.70
2018-08-25T08:26:18.938Z,17.90
2018-08-25T08:28:22.997Z,17.80
2018-08-25T08:30:27.423Z,17.80
2018-08-25T08:32:31.468Z,18.00
2018-08-25T08:34:35.465Z,17.80
2018-08-25T08:36:39.511Z,17.20
2018-08-25T08:38:43.707Z,16.50
2018-08-25T08:40:49.288Z,16.60
2018-08-25T08:42:53.588Z,16.20
2018-08-25T08:44:57.663Z,15.80
2018-08-25T08:47:01.572Z,16.00
2018-08-25T08:49:07.710Z,16.20
2018-08-25T08:51:12.006Z,15.90
2018-08-25T08:53:16.277Z,16.00
2018-08-25T08:55:20.547Z,16.00
2018-08-25T08:57:24.460Z,16.20
2018-08-25T08:59:28.336Z,16.20
2018-08-25T09:01:32.823Z,16.20
2018-08-25T09:03:36.745Z,16.30
2018-08-25T09:05:40.702Z,16.30
2018-08-25T09:07:46.121Z,16.30
2018-08-25T09:09:50.421Z,16.50
2018-08-25T09:11:54.502Z,16.40
2018-08-25T09:13:58.308Z,16.50
2018-08-25T09:16:02.510Z,16.50
2018-08-25T09:18:06.391Z,16.40
2018-08-25T09:20:10.479Z,16.30
2018-08-25T09:22:15.414Z,16.40
2018-08-25T09:24:19.847Z,16.50
2018-08-25T09:26:23.877Z,16.60
2018-08-25T09:28:28.111Z,16.90
2018-08-25T09:30:32.032Z,16.90
2018-08-25T09:32:36.041Z,17.10
2018-08-25T09:34:39.971Z,17.40
2018-08-25T09:36:44.211Z,17.60
2018-08-25T09:38:48.448Z,18.00
2018-08-25T09:40:53.161Z,18.20
2018-08-25T09:42:58.305Z,18.40
2018-08-25T09:45:02.531Z,18.50
2018-08-25T09:47:06.908Z,18.40
2018-08-25T09:49:10.794Z,18.50
2018-08-25T09:51:16.209Z,18.40
2018-08-25T09:53:20.728Z,18.40
2018-08-25T09:55:24.713Z,18.70
2018-08-25T09:57:28.661Z,18.70
2018-08-25T09:59:32.560Z,19.00
2018-08-25T10:01:42.284Z,19.10
2018-08-25T10:03:46.950Z,19.30
2018-08-25T10:05:51.074Z,19.30
2018-08-25T10:07:55.099Z,19.10
2018-08-25T10:09:59.132Z,19.10
2018-08-25T10:12:03.116Z,18.90
2018-08-25T10:14:07.248Z,18.80
2018-08-25T10:16:11.293Z,18.90
2018-08-25T10:18:15.728Z,18.90
2018-08-25T10:20:19.842Z,19.00
2018-08-25T10:22:23.931Z,19.00
2018-08-25T10:24:27.771Z,19.00
2018-08-25T10:26:31.648Z,19.00
2018-08-25T10:28:35.646Z,19.10
2018-08-25T10:30:39.615Z,18.90
2018-08-25T10:32:44.423Z,18.80
2018-08-25T10:34:49.167Z,18.90
2018-08-25T10:36:53.185Z,19.00
2018-08-25T10:38:57.105Z,19.00
2018-08-25T10:41:01.275Z,18.70
2018-08-25T10:43:05.504Z,18.40
2018-08-25T10:45:09.649Z,17.90
2018-08-25T10:47:13.814Z,17.70
2018-08-25T10:49:18.407Z,17.30
2018-08-25T10:51:22.390Z,17.40
2018-08-25T10:53:26.373Z,17.50
2018-08-25T10:55:30.292Z,17.40
2018-08-25T10:57:34.196Z,17.50
2018-08-25T10:59:38.088Z,17.40
2018-08-25T11:01:43.219Z,17.40
2018-08-25T11:03:47.284Z,17.30
2018-08-25T11:05:51.339Z,17.10
2018-08-25T11:07:55.183Z,17.10
2018-08-25T11:09:59.125Z,17.10
2018-08-25T11:12:03.131Z,17.00
2018-08-25T11:14:07.053Z,17.00
2018-08-25T11:16:11.433Z,17.10
2018-08-25T11:18:15.729Z,17.30
2018-08-25T11:20:19.985Z,17.60
2018-08-25T11:22:24.049Z,17.60
2018-08-25T11:24:28.004Z,17.70
2018-08-25T11:26:32.551Z,18.00
2018-08-25T11:28:36.630Z,18.20
2018-08-25T11:30:40.833Z,18.20
2018-08-25T11:32:45.272Z,18.40
2018-08-25T11:34:49.302Z,18.20
2018-08-25T11:36:53.571Z,18.30
2018-08-25T11:38:57.522Z,18.40
2018-08-25T11:41:01.474Z,18.50
2018-08-25T11:43:05.520Z,18.50
2018-08-25T11:45:09.514Z,18.70
2018-08-25T11:47:17.837Z,18.70
2018-08-25T11:49:22.016Z,18.70
2018-08-25T11:51:25.952Z,18.70
2018-08-25T11:53:29.985Z,18.60
2018-08-25T11:55:33.937Z,18.60
2018-08-25T11:57:37.808Z,18.30
2018-08-25T11:59:42.350Z,18.30
2018-08-25T12:01:46.927Z,18.30
2018-08-25T12:03:51.445Z,18.30
2018-08-25T12:05:55.569Z,18.20
2018-08-25T12:07:59.993Z,18.20
2018-08-25T12:10:03.962Z,18.20
2018-08-25T12:12:08.201Z,18.30
2018-08-25T12:14:14.795Z,18.30
2018-08-25T12:16:19.053Z,18.20
2018-08-25T12:18:23.026Z,18.10
2018-08-25T12:20:26.998Z,18.20
2018-08-25T12:22:30.884Z,18.30
2018-08-25T12:24:34.869Z,18.10
2018-08-25T12:26:38.948Z,17.80
2018-08-25T12:28:43.584Z,17.60
2018-08-25T12:30:47.697Z,17.30
2018-08-25T12:32:51.844Z,17.30
2018-08-25T12:34:55.916Z,17.30
2018-08-25T12:36:59.932Z,17.30
2018-08-25T12:39:04.523Z,17.30
2018-08-25T12:41:08.523Z,17.30
2018-08-25T12:43:13.424Z,17.40
2018-08-25T12:45:17.727Z,17.50
2018-08-25T12:47:24.808Z,17.40
2018-08-25T12:49:28.823Z,17.50
2018-08-25T12:51:32.950Z,17.50
2018-08-25T12:53:36.981Z,17.50
2018-08-25T12:55:41.203Z,17.50
2018-08-25T12:57:45.868Z,17.60
2018-08-25T12:59:50.207Z,17.50
2018-08-25T13:01:54.583Z,17.50
2018-08-25T13:03:58.400Z,17.50
2018-08-25T13:06:02.429Z,17.40
2018-08-25T13:08:06.345Z,17.50
2018-08-25T13:10:10.750Z,17.50
2018-08-25T13:12:15.913Z,17.60
2018-08-25T13:14:19.959Z,17.60
2018-08-25T13:16:24.221Z,17.80
2018-08-25T13:18:28.308Z,17.80
2018-08-25T13:20:32.316Z,17.80
2018-08-25T13:22:36.355Z,17.90
2018-08-25T13:24:40.659Z,17.90
2018-08-25T13:26:44.853Z,17.90
2018-08-25T13:28:48.927Z,17.90
2018-08-25T13:30:53.285Z,17.90
2018-08-25T13:32:57.292Z,18.00
2018-08-25T13:35:01.838Z,18.10
2018-08-25T13:37:05.842Z,18.30
2018-08-25T13:39:11.982Z,18.30
2018-08-25T13:41:16.761Z,18.30
2018-08-25T13:43:21.252Z,18.50
2018-08-25T13:45:25.333Z,18.40
2018-08-25T13:47:30.726Z,18.30
2018-08-25T13:49:34.749Z,18.20
2018-08-25T13:51:39.064Z,18.10
2018-08-25T13:53:43.479Z,18.00
2018-08-25T13:55:47.884Z,17.90
2018-08-25T13:57:52.375Z,17.90
2018-08-25T13:59:56.673Z,17.80
2018-08-25T14:02:00.739Z,17.70
2018-08-25T14:04:04.689Z,17.80
2018-08-25T14:06:08.879Z,17.60
2018-08-25T14:08:14.135Z,17.90
2018-08-25T14:10:18.156Z,17.90
2018-08-25T14:12:22.242Z,17.80
2018-08-25T14:14:26.188Z,17.70
2018-08-25T14:16:30.211Z,17.70
2018-08-25T14:18:34.184Z,17.70
2018-08-25T14:20:38.165Z,17.80
2018-08-25T14:22:42.118Z,17.80
2018-08-25T14:24:46.229Z,17.70
2018-08-25T14:26:50.539Z,17.80
2018-08-25T14:28:54.724Z,17.70
2018-08-25T14:30:58.720Z,17.40
2018-08-25T14:33:02.629Z,17.10
2018-08-25T14:35:06.550Z,16.90
2018-08-25T14:37:10.746Z,16.90
2018-08-25T14:39:15.239Z,16.80
2018-08-25T14:41:19.381Z,16.70
2018-08-25T14:43:23.478Z,16.80
2018-08-25T14:45:27.656Z,16.90
2018-08-25T14:47:31.702Z,17.00
2018-08-25T14:49:35.564Z,16.80
2018-08-25T14:51:39.479Z,16.80
2018-08-25T14:53:43.944Z,16.80
2018-08-25T14:55:48.177Z,16.90
2018-08-25T14:57:52.360Z,16.90
2018-08-25T14:59:56.222Z,16.90
2018-08-25T15:02:00.139Z,16.90
2018-08-25T15:04:04.050Z,16.90
2018-08-25T15:06:07.967Z,16.90
2018-08-25T15:08:12.212Z,16.80
2018-08-25T15:10:16.706Z,16.90
2018-08-25T15:12:20.720Z,16.80
2018-08-25T15:14:24.587Z,16.70
2018-08-25T15:16:28.445Z,16.70
2018-08-25T15:18:32.520Z,16.80
2018-08-25T15:20:36.899Z,16.60
2018-08-25T15:22:42.601Z,16.70
2018-08-25T15:24:46.767Z,16.60
2018-08-25T15:26:51.028Z,16.80
2018-08-25T15:28:54.884Z,16.80
2018-08-25T15:30:58.871Z,16.90
2018-08-25T15:33:02.726Z,16.90
2018-08-25T15:35:06.586Z,16.90
2018-08-25T15:37:10.862Z,17.00
2018-08-25T15:39:15.164Z,17.20
2018-08-25T15:41:19.416Z,17.20
2018-08-25T15:43:23.814Z,17.40
2018-08-25T15:45:27.776Z,17.40
2018-08-25T15:47:31.804Z,17.60
2018-08-25T15:49:35.669Z,17.50
2018-08-25T15:51:39.579Z,17.30
2018-08-25T15:53:43.575Z,17.40
2018-08-25T15:55:48.118Z,17.70
2018-08-25T15:57:52.399Z,17.80
2018-08-25T15:59:56.372Z,17.80
2018-08-25T16:02:00.356Z,17.80
2018-08-25T16:04:04.207Z,17.80
2018-08-25T16:06:08.157Z,17.90
2018-08-25T16:08:12.064Z,18.00
2018-08-25T16:10:16.604Z,18.00
2018-08-25T16:12:20.883Z,18.10
2018-08-25T16:14:24.737Z,18.00
2018-08-25T16:16:28.913Z,17.90
2018-08-25T16:18:32.900Z,17.90
2018-08-25T16:20:36.784Z,17.90
2018-08-25T16:22:40.731Z,18.00
2018-08-25T16:24:45.450Z,18.00
2018-08-25T16:26:49.596Z,18.00
2018-08-25T16:28:53.805Z,18.00
2018-08-25T16:30:57.652Z,18.00
2018-08-25T16:33:01.561Z,18.00
2018-08-25T16:35:05.448Z,17.90
2018-08-25T16:37:09.669Z,17.80
2018-08-25T16:39:13.714Z,17.80
2018-08-25T16:41:17.841Z,17.70
2018-08-25T16:43:22.346Z,17.80
2018-08-25T16:45:26.330Z,17.90
2018-08-25T16:47:30.164Z,18.00
2018-08-25T16:49:34.036Z,17.90
2018-08-25T16:51:37.904Z,17.80
2018-08-25T16:53:41.886Z,17.90
2018-08-25T16:55:46.209Z,17.90
2018-08-25T16:57:50.217Z,17.90
2018-08-25T16:59:54.167Z,17.90
2018-08-25T17:01:58.052Z,17.90
2018-08-25T17:04:02.081Z,17.90
2018-08-25T17:06:06.032Z,17.90
2018-08-25T17:08:10.052Z,17.90
2018-08-25T17:10:14.281Z,17.80
2018-08-25T17:12:18.466Z,17.80
2018-08-25T17:14:22.767Z,17.80
2018-08-25T17:16:26.786Z,17.80
2018-08-25T17:18:30.663Z,17.80
2018-08-25T17:20:34.536Z,17.80
2018-08-25T17:22:38.385Z,17.70
2018-08-25T17:24:43.782Z,17.60
2018-08-25T17:26:48.099Z,17.60
2018-08-25T17:28:52.112Z,17.50
2018-08-25T17:30:56.043Z,17.50
2018-08-25T17:33:00.092Z,17.50
2018-08-25T17:35:04.267Z,17.50
2018-08-25T17:37:08.254Z,17.60
2018-08-25T17:39:14.177Z,17.60
2018-08-25T17:41:18.389Z,17.50
2018-08-25T17:43:22.656Z,17.40
2018-08-25T17:45:26.501Z,17.40
2018-08-25T17:47:30.330Z,17.40
2018-08-25T17:49:34.200Z,17.40
2018-08-25T17:51:40.423Z,17.40
2018-08-25T17:53:45.011Z,17.40
2018-08-25T17:55:49.388Z,17.40
2018-08-25T17:57:53.286Z,17.40
2018-08-25T17:59:58.077Z,17.40
2018-08-25T18:02:02.414Z,17.30
2018-08-25T18:04:06.333Z,17.40
2018-08-25T18:06:10.343Z,17.30
2018-08-25T18:08:14.657Z,17.40
2018-08-25T18:10:18.816Z,17.30
2018-08-25T18:12:22.902Z,17.40
2018-08-25T18:14:26.787Z,17.40
2018-08-25T18:16:30.612Z,17.20
2018-08-25T18:18:34.596Z,17.40
2018-08-25T18:20:38.642Z,17.20
2018-08-25T18:22:42.693Z,17.30
2018-08-25T18:24:46.892Z,17.10
2018-08-25T18:26:50.900Z,17.20
2018-08-25T18:28:54.933Z,17.20
2018-08-25T18:30:58.787Z,17.10
2018-08-25T18:33:02.666Z,17.00
2018-08-25T18:35:06.648Z,17.00
2018-08-25T18:37:10.655Z,16.60
2018-08-25T18:39:15.543Z,15.60
2018-08-25T18:41:20.686Z,15.80
2018-08-25T18:43:24.613Z,16.20
2018-08-25T18:45:28.476Z,16.20
2018-08-25T18:47:32.408Z,16.20
2018-08-25T18:49:36.687Z,16.20
2018-08-25T18:51:40.612Z,16.20
2018-08-25T18:53:44.670Z,16.20
2018-08-25T18:55:48.918Z,16.20
2018-08-25T18:57:53.061Z,16.10
2018-08-25T18:59:57.074Z,16.20
2018-08-25T19:02:01.126Z,16.20
2018-08-25T19:04:05.095Z,16.20
2018-08-25T19:06:09.003Z,16.20
2018-08-25T19:08:16.772Z,16.20
2018-08-25T19:10:22.011Z,16.20
2018-08-25T19:12:25.905Z,16.20
2018-08-25T19:14:31.077Z,16.10
2018-08-25T19:16:35.560Z,16.10
2018-08-25T19:18:39.871Z,16.10
2018-08-25T19:20:48.582Z,15.90
2018-08-25T19:22:52.430Z,15.80
2018-08-25T19:24:56.528Z,15.70
2018-08-25T19:27:04.377Z,15.70
2018-08-25T19:29:09.516Z,15.60
2018-08-25T19:31:13.662Z,15.70
2018-08-25T19:33:18.084Z,15.70
2018-08-25T19:35:22.139Z,15.70
2018-08-25T19:37:26.149Z,15.80
2018-08-25T19:39:30.096Z,15.80
2018-08-25T19:41:35.120Z,15.70
2018-08-25T19:43:39.166Z,15.70
2018-08-25T19:45:44.440Z,15.60
2018-08-25T19:47:48.698Z,15.60
2018-08-25T19:49:52.823Z,15.60
2018-08-25T19:51:56.636Z,15.30
2018-08-25T19:54:00.705Z,15.30
2018-08-25T19:56:04.635Z,15.30
2018-08-25T19:58:08.540Z,15.30
2018-08-25T20:00:13.119Z,15.30
2018-08-25T20:02:17.447Z,15.30
2018-08-25T20:04:21.724Z,15.50
2018-08-25T20:06:25.838Z,15.20
2018-08-25T20:08:29.944Z,15.30
2018-08-25T20:10:33.857Z,15.30
2018-08-25T20:12:37.774Z,15.20
2018-08-25T20:14:42.585Z,15.30
2018-08-25T20:16:48.469Z,15.20
2018-08-25T20:18:52.743Z,15.20
2018-08-25T20:20:58.118Z,15.30
2018-08-25T20:23:02.015Z,15.20
2018-08-25T20:25:05.993Z,15.30
2018-08-25T20:27:10.280Z,15.30
2018-08-25T20:29:15.300Z,15.30
2018-08-25T20:31:20.172Z,15.40
2018-08-25T20:33:24.929Z,15.50
2018-08-25T20:35:30.352Z,15.50
2018-08-25T20:37:34.663Z,15.50
2018-08-25T20:39:38.502Z,15.50
2018-08-25T20:41:42.717Z,15.40
2018-08-25T20:43:47.239Z,15.40
2018-08-25T20:46:00.067Z,15.50
2018-08-25T20:48:05.757Z,15.50
2018-08-25T20:50:10.193Z,15.50
2018-08-25T20:52:17.207Z,15.60
2018-08-25T20:54:26.839Z,15.50
2018-08-25T20:56:31.952Z,15.60
2018-08-25T20:58:37.156Z,15.60
2018-08-25T21:00:41.313Z,15.60
2018-08-25T21:02:45.744Z,15.60
2018-08-25T21:04:49.924Z,15.50
2018-08-25T21:06:54.114Z,15.40
2018-08-25T21:08:58.042Z,15.30
2018-08-25T21:13:19.588Z,15.00
2018-08-25T21:15:24.746Z,14.80
2018-08-25T21:17:28.909Z,14.70
2018-08-25T21:19:32.757Z,14.60
2018-08-25T21:21:36.612Z,14.80
2018-08-25T21:23:40.583Z,14.90
2018-08-25T21:25:45.371Z,14.90
2018-08-25T21:27:49.543Z,14.90
2018-08-25T21:29:54.114Z,14.90
2018-08-25T21:31:57.967Z,14.80
2018-08-25T21:34:02.055Z,15.00
2018-08-25T21:36:05.951Z,15.00
2018-08-25T21:38:09.844Z,14.90
2018-08-25T21:40:14.102Z,15.00
2018-08-25T21:42:18.899Z,15.00
2018-08-25T21:44:22.855Z,14.90
2018-08-25T21:46:26.958Z,15.10
2018-08-25T21:48:30.848Z,14.90
2018-08-25T21:50:34.707Z,14.90
2018-08-25T21:52:38.613Z,14.90
2018-08-25T21:54:44.814Z,14.70
2018-08-25T21:56:49.402Z,14.50
2018-08-25T21:58:53.606Z,14.40
2018-08-25T22:00:58.237Z,14.50
2018-08-25T22:03:02.275Z,14.50
2018-08-25T22:05:06.186Z,14.50
2018-08-25T22:07:10.035Z,14.40
2018-08-25T22:09:16.404Z,14.40
2018-08-25T22:11:20.421Z,14.40
2018-08-25T22:13:24.364Z,14.50
2018-08-25T22:15:28.240Z,14.30
2018-08-25T22:17:32.131Z,14.20
2018-08-25T22:19:35.972Z,14.20
2018-08-25T22:21:39.836Z,14.30
2018-08-25T22:23:44.560Z,14.30
2018-08-25T22:25:48.823Z,14.20
2018-08-25T22:27:52.905Z,14.40
2018-08-25T22:29:56.799Z,14.50
2018-08-25T22:32:00.736Z,14.60
2018-08-25T22:34:04.925Z,14.70
2018-08-25T22:36:08.772Z,14.70
2018-08-25T22:38:12.868Z,14.80
2018-08-25T22:40:16.960Z,14.80
2018-08-25T22:42:21.111Z,14.80
2018-08-25T22:44:24.962Z,14.80
2018-08-25T22:46:28.963Z,14.80
2018-08-25T22:48:32.863Z,14.80
2018-08-25T22:50:36.889Z,14.80
2018-08-25T22:52:46.377Z,14.70
2018-08-25T22:54:50.684Z,14.70
2018-08-25T22:56:54.589Z,14.70
2018-08-25T22:58:58.751Z,14.60
2018-08-25T23:01:02.775Z,14.60
2018-08-25T23:03:06.667Z,14.60
2018-08-25T23:05:10.551Z,14.50
2018-08-25T23:07:15.054Z,14.60
2018-08-25T23:09:19.216Z,14.50
2018-08-25T23:11:23.161Z,14.30
2018-08-25T23:13:27.083Z,14.30
2018-08-25T23:15:30.913Z,14.40
2018-08-25T23:17:34.756Z,14.30
2018-08-25T23:19:38.601Z,14.40
2018-08-25T23:21:43.570Z,14.30
2018-08-25T23:23:47.970Z,14.10
2018-08-25T23:25:52.358Z,14.10
2018-08-25T23:27:56.256Z,14.00
2018-08-25T23:30:00.159Z,13.90
2018-08-25T23:32:04.011Z,14.00
2018-08-25T23:34:07.862Z,14.20
2018-08-25T23:36:11.927Z,14.40
2018-08-25T23:38:16.046Z,14.40
2018-08-25T23:40:20.065Z,14.40
2018-08-25T23:42:23.947Z,14.20
2018-08-25T23:44:27.816Z,14.30
2018-08-25T23:46:31.720Z,14.30
2018-08-25T23:48:35.592Z,14.40
2018-08-25T23:50:40.481Z,14.30
2018-08-25T23:52:45.720Z,14.40
2018-08-25T23:54:49.836Z,14.40
2018-08-25T23:56:53.829Z,14.40
2018-08-25T23:58:57.710Z,14.40
